METAR ET TAF INFORMATION
METAR FOR ENSO
ADDS - METARS form results

(1532 UTC 20 May 2019)
Data provider http://aviationweather.gov/metar/data/
 
METAR text: ENSO 201520Z 33006KT 280V360 CAVOK 16/10 Q1011
Conditions at: ENSO (STORD/SOERSTOKKE, NO) observed 1520 UTC 20 May 2019
Temperature: 16.0°C (61°F)
Dewpoint: 10.0°C (50°F) [RH = 68%]
Pressure (altimeter): 29.85 inches Hg (1011.0 mb)
Winds: from the NNW (330 degrees) at 7 MPH (6 knots; 3.1 m/s)
Visibility: 6 or more miles (10+ km)
Ceiling: ceiling and visibility are OK
Clouds: unknown
Weather: no significant weather observed at this time

METAR text: ENSO 201450Z 32006KT 280V010 CAVOK 17/11 Q1011
Conditions at: ENSO (STORD/SOERSTOKKE, NO) observed 1450 UTC 20 May 2019
Temperature: 17.0°C (63°F)
Dewpoint: 11.0°C (52°F) [RH = 68%]
Pressure (altimeter): 29.85 inches Hg (1011.0 mb)
Winds: from the NW (320 degrees) at 7 MPH (6 knots; 3.1 m/s)
Visibility: 6 or more miles (10+ km)
Ceiling: ceiling and visibility are OK
Clouds: unknown
Weather: no significant weather observed at this time

Forecast for: ENSO (STORD/SOERSTOKKE, NO)
Text: TAF ENSO 201400Z 2015/2018 33008KT CAVOK
Forecast period: 1500 to 1800 UTC 20 May 2019
Forecast type: FROM: standard forecast or significant change
Winds: from the NNW (330 degrees) at 9 MPH (8 knots; 4.1 m/s)
Visibility: 6 or more miles 10+ km)
Ceiling: unknown
Clouds: missing
Weather: NSW  (no significant weather)

 AÉROPORT DE AÉROPORT

 INFORMATIONS DE PISTE
Piste 14 Longueur de la piste 3937 ft Largeur de la piste 98 ft
Élévation de la piste 153 ft Seuil de la piste déplacés 0 ft Runway heading 145
Piste 32 Longueur de la piste 3937 ft Largeur de la piste 98 ft
Élévation de la piste 152 ft Seuil de la piste déplacés 0 ft Runway heading 325

 AÉROPORT FRÉQUENCES
Type AFIS Nom INFO Féquence 120.2 MHZ

 SIDA DE NAVIGATION
Type VOR-DME Nom Stord Féquence 113400 KHZ



Powered by Virtual Airlines Manager [v2.6.2]